Joe Foss Field Airport
KFSD : now visible

Airfield :











YOU CAN JOIN US ON...

 
LOGIN :

Register | Disclaimer

   EN    FR    IT 

 









Legend :    VFR   Marginal VFR   IFR   Intensive IFR   Very Intensive IFR
Visi :
Ceiling :
>= 8 km
>= 3000ft
5 to 8 km
1000 to 3000 ft
1500m to 5 km
500 to 1000 ft
800 to 1500m
200 to 500 ft
< 800m
< 200 ft
Symbols :   Thunderstorms  Fog  Heavy snow  Heavy precipitations  Wind > 20 kt






- Airport Elevation : 1429 ft
- IATA code : FSD


KFSD - Joe Foss Field

CURRENT METAR :
  • 051856Z 28009KT 10SM FEW250 04/M02 A2986 RMK AO2 SLP127 T00391017

EXPIRED METARs :
  • 051756Z 29007KT 10SM FEW250 03/M02 A2986 RMK AO2 SLP128 I6003 T00331017 10033 21072 51012
  • 051656Z 24004KT 10SM FEW250 03/M01 A2986 RMK AO2 SLP126 T00281011

TAF KFSD
Valid from the 05 at 18:00 until the 06 at 18:00 UTC


051720Z 0518/0618 27005KT P6SM FEW250
FM052200 33011G17KT P6SM SCT100
FM060000 36013G20KT P6SM BKN015
FM060200 36011G19KT P6SM OVC025
FM060600 36008KT P6SM BKN040



MET'MAP, your aeronautical weather chart ! - Copyright ORBIFLY December 2007 - Disclaimer

ORBIFLY MET'MAP TEAM :

Programming & Development : Alexandra Zaïnal
Concept & original design : Baudouin d'Aumeries
Assistance for programming : Marc-Olivier Méhu
Technical & hardware support : Manuel Goepfert

Contact : metmap@orbifly.com




SOURCES & CREDITS :

   NOAA       Earth
Advisory